createdAt,value
2019-02-28T00:00:59.823Z,77.60
2019-02-28T00:03:27.353Z,77.50
2019-02-28T00:05:54.850Z,77.20
2019-02-28T00:08:22.479Z,77.10
2019-02-28T00:10:49.903Z,77.00
2019-02-28T00:13:21.387Z,77.00
2019-02-28T00:15:46.601Z,77.00
2019-02-28T00:18:15.472Z,77.10
2019-02-28T00:20:43.994Z,77.00
2019-02-28T00:23:11.543Z,77.40
2019-02-28T00:25:38.966Z,77.30
2019-02-28T00:28:06.384Z,77.50
2019-02-28T00:30:34.039Z,77.20
2019-02-28T00:33:01.427Z,77.40
2019-02-28T00:35:28.849Z,77.30
2019-02-28T00:37:57.366Z,77.40
2019-02-28T00:40:24.914Z,77.90
2019-02-28T00:42:52.479Z,77.90
2019-02-28T00:45:21.625Z,77.60
2019-02-28T00:47:49.020Z,77.20
2019-02-28T00:50:16.445Z,76.80
2019-02-28T00:52:43.943Z,76.50
2019-02-28T00:55:14.516Z,76.10
2019-02-28T00:57:40.544Z,75.70
2019-02-28T01:00:09.210Z,75.80
2019-02-28T01:02:36.671Z,75.70
2019-02-28T01:05:04.831Z,75.40
2019-02-28T01:07:33.872Z,75.20
2019-02-28T01:10:04.288Z,75.40
2019-02-28T01:12:32.432Z,75.00
2019-02-28T01:14:59.967Z,75.00
2019-02-28T01:17:27.473Z,75.00
2019-02-28T01:19:55.025Z,74.90
2019-02-28T01:22:22.519Z,74.80
2019-02-28T01:24:49.949Z,74.90
2019-02-28T01:27:21.031Z,74.80
2019-02-28T01:29:47.155Z,74.60
2019-02-28T01:32:15.642Z,75.10
2019-02-28T01:34:43.759Z,74.20
2019-02-28T01:37:11.286Z,74.20
2019-02-28T01:39:38.689Z,74.30
2019-02-28T01:42:06.081Z,74.20
2019-02-28T01:44:35.823Z,74.40
2019-02-28T01:47:03.494Z,74.40
2019-02-28T01:49:30.914Z,75.20
2019-02-28T01:51:58.378Z,74.50
2019-02-28T01:54:27.782Z,74.50
2019-02-28T01:56:54.984Z,74.40
2019-02-28T01:59:22.638Z,74.30
2019-02-28T02:01:50.071Z,74.40
2019-02-28T02:04:17.474Z,73.60
2019-02-28T02:06:44.919Z,73.60
2019-02-28T02:09:12.320Z,73.90
2019-02-28T02:11:39.714Z,73.90
2019-02-28T02:14:07.475Z,73.80
2019-02-28T02:16:36.335Z,73.70
2019-02-28T02:19:03.961Z,73.50
2019-02-28T02:21:34.635Z,73.60
2019-02-28T02:24:00.583Z,73.70
2019-02-28T02:26:27.970Z,73.70
2019-02-28T02:29:00.893Z,73.80
2019-02-28T02:31:28.858Z,74.40
2019-02-28T02:33:54.166Z,73.70
2019-02-28T02:36:21.618Z,73.70
2019-02-28T02:38:49.019Z,73.80
2019-02-28T02:41:16.415Z,73.90
2019-02-28T02:43:45.243Z,74.20
2019-02-28T02:46:19.734Z,74.20
2019-02-28T02:48:42.284Z,74.20
2019-02-28T02:51:12.385Z,74.30
2019-02-28T02:53:41.905Z,74.20
2019-02-28T02:56:09.340Z,74.10
2019-02-28T02:58:36.817Z,74.20
2019-02-28T03:01:04.198Z,74.20
2019-02-28T03:03:31.603Z,74.40
2019-02-28T03:05:59.072Z,74.10
2019-02-28T03:08:26.449Z,74.50
2019-02-28T03:10:53.850Z,74.20
2019-02-28T03:13:21.293Z,74.20
2019-02-28T03:15:48.663Z,74.40
2019-02-28T03:18:20.547Z,74.30
2019-02-28T03:20:45.468Z,74.60
2019-02-28T03:23:12.867Z,74.60
2019-02-28T03:25:40.267Z,74.60
2019-02-28T03:28:07.719Z,74.50
2019-02-28T03:30:35.156Z,74.40
2019-02-28T03:33:02.617Z,74.50
2019-02-28T03:35:40.159Z,74.30
2019-02-28T03:38:01.768Z,74.20
2019-02-28T03:40:29.170Z,74.20
2019-02-28T03:42:56.634Z,74.20
2019-02-28T03:45:24.206Z,74.80
2019-02-28T03:47:58.458Z,74.10
2019-02-28T03:50:22.383Z,75.30
2019-02-28T03:52:50.563Z,74.30
2019-02-28T03:55:17.863Z,74.50
2019-02-28T03:57:45.486Z,74.40
2019-02-28T04:00:15.032Z,74.50
2019-02-28T04:02:42.420Z,74.60
2019-02-28T04:05:10.066Z,74.40
2019-02-28T04:07:37.487Z,74.60
2019-02-28T04:10:05.495Z,74.80
2019-02-28T04:12:33.228Z,74.80
2019-02-28T04:15:00.640Z,75.10
2019-02-28T04:17:30.625Z,74.80
2019-02-28T04:20:00.038Z,74.80
2019-02-28T04:22:26.469Z,75.00
2019-02-28T04:24:53.858Z,75.00
2019-02-28T04:27:21.324Z,75.30
2019-02-28T04:29:48.739Z,75.50
2019-02-28T04:32:16.156Z,75.50
2019-02-28T04:34:45.814Z,75.80
2019-02-28T04:37:12.794Z,75.30
2019-02-28T04:39:40.202Z,75.80
2019-02-28T04:42:07.655Z,75.60
2019-02-28T04:44:35.276Z,75.70
2019-02-28T04:47:03.472Z,75.60
2019-02-28T04:49:32.122Z,75.60
2019-02-28T04:51:59.534Z,75.30
2019-02-28T04:54:27.896Z,75.60
2019-02-28T04:56:56.062Z,75.90
2019-02-28T04:59:23.466Z,75.80
2019-02-28T05:01:50.866Z,75.80
2019-02-28T05:04:18.300Z,75.80
2019-02-28T05:06:45.706Z,75.80
2019-02-28T05:09:14.555Z,75.60
2019-02-28T05:11:42.376Z,75.70
2019-02-28T05:14:09.827Z,76.50
2019-02-28T05:16:38.822Z,76.00
2019-02-28T05:19:06.378Z,75.70
2019-02-28T05:21:33.786Z,75.80
2019-02-28T05:24:01.189Z,76.00
2019-02-28T05:26:28.622Z,76.10
2019-02-28T05:28:56.014Z,76.20
2019-02-28T05:31:24.161Z,75.80
2019-02-28T05:33:52.656Z,75.90
2019-02-28T05:36:21.866Z,75.80
2019-02-28T05:38:49.250Z,75.80
2019-02-28T05:41:16.766Z,76.10
2019-02-28T05:43:44.255Z,76.30
2019-02-28T05:46:11.850Z,75.90
2019-02-28T05:48:39.666Z,76.20
2019-02-28T05:51:07.067Z,78.00
2019-02-28T05:53:35.664Z,77.00
2019-02-28T05:56:03.439Z,76.50
2019-02-28T05:58:30.871Z,76.10
2019-02-28T06:00:58.280Z,76.20
2019-02-28T06:03:25.742Z,76.20
2019-02-28T06:05:53.151Z,76.30
2019-02-28T06:08:20.546Z,76.20
2019-02-28T06:10:48.010Z,76.40
2019-02-28T06:13:18.264Z,77.00
2019-02-28T06:15:44.613Z,76.50
2019-02-28T06:18:12.047Z,76.20
2019-02-28T06:20:39.465Z,76.20
2019-02-28T06:23:09.307Z,76.50
2019-02-28T06:25:36.255Z,76.40
2019-02-28T06:28:03.644Z,76.40
2019-02-28T06:30:31.042Z,76.10
2019-02-28T06:32:59.582Z,76.20
2019-02-28T06:35:27.114Z,76.60
2019-02-28T06:37:54.522Z,76.20
2019-02-28T06:40:21.970Z,76.10
2019-02-28T06:42:49.385Z,76.00
2019-02-28T06:45:17.001Z,76.00
2019-02-28T06:47:48.208Z,75.70
2019-02-28T06:50:14.774Z,75.40
2019-02-28T06:52:42.162Z,75.60
2019-02-28T06:55:13.304Z,75.00
2019-02-28T06:57:40.775Z,75.30
2019-02-28T07:00:10.379Z,74.90
2019-02-28T07:02:38.060Z,75.40
2019-02-28T07:05:07.367Z,74.70
2019-02-28T07:07:34.767Z,74.40
2019-02-28T07:10:02.229Z,75.40
2019-02-28T07:12:30.441Z,74.30
2019-02-28T07:14:59.557Z,74.10
2019-02-28T07:17:27.001Z,73.50
2019-02-28T07:19:54.398Z,73.40
2019-02-28T07:22:21.814Z,73.60
2019-02-28T07:24:49.362Z,73.00
2019-02-28T07:27:16.759Z,73.50
2019-02-28T07:29:44.170Z,73.10
2019-02-28T07:32:11.755Z,72.90
2019-02-28T07:34:39.187Z,72.80
2019-02-28T07:37:06.602Z,72.30
2019-02-28T07:39:36.535Z,72.30
2019-02-28T07:42:03.642Z,71.90
2019-02-28T07:44:31.055Z,71.10
2019-02-28T07:46:58.672Z,71.10
2019-02-28T07:49:26.560Z,70.80
2019-02-28T07:51:56.892Z,71.10
2019-02-28T07:54:23.322Z,70.40
2019-02-28T07:56:50.762Z,70.20
2019-02-28T07:59:18.158Z,70.90
2019-02-28T08:01:45.636Z,70.30
2019-02-28T08:04:18.062Z,69.40
2019-02-28T08:06:42.234Z,69.50
2019-02-28T08:09:23.487Z,69.30
2019-02-28T08:11:55.560Z,69.00
2019-02-28T08:14:21.303Z,69.20
2019-02-28T08:16:49.099Z,68.70
2019-02-28T08:19:16.498Z,69.00
2019-02-28T08:21:47.610Z,68.30
2019-02-28T08:24:13.162Z,67.80
2019-02-28T08:26:40.547Z,68.30
2019-02-28T08:29:10.767Z,67.50
2019-02-28T08:31:37.191Z,67.20
2019-02-28T08:34:04.586Z,67.60
2019-02-28T08:36:31.996Z,66.40
2019-02-28T08:38:59.460Z,67.30
2019-02-28T08:41:26.874Z,66.80
2019-02-28T08:43:54.283Z,66.90
2019-02-28T08:46:21.726Z,65.80
2019-02-28T08:48:50.281Z,66.50
2019-02-28T08:51:17.681Z,65.90
2019-02-28T08:53:50.771Z,66.00
2019-02-28T08:56:14.909Z,64.80
2019-02-28T08:58:42.757Z,65.20
2019-02-28T09:01:10.261Z,65.40
2019-02-28T09:03:37.642Z,64.40
2019-02-28T09:06:07.148Z,64.80
2019-02-28T09:08:34.314Z,64.50
2019-02-28T09:11:01.719Z,63.90
2019-02-28T09:13:29.137Z,64.80
2019-02-28T09:15:56.690Z,63.50
2019-02-28T09:18:25.198Z,63.40
2019-02-28T09:21:12.125Z,64.50
2019-02-28T09:23:39.789Z,63.00
2019-02-28T09:26:07.194Z,62.60
2019-02-28T09:28:34.779Z,63.10
2019-02-28T09:31:04.952Z,63.30
2019-02-28T09:33:31.410Z,62.30
2019-02-28T09:35:58.996Z,63.10
2019-02-28T09:38:26.414Z,63.20
2019-02-28T09:40:53.815Z,63.00
2019-02-28T09:43:23.936Z,62.70
2019-02-28T09:45:50.601Z,61.70
2019-02-28T09:48:17.999Z,62.00
2019-02-28T09:50:45.730Z,61.60
2019-02-28T09:53:16.466Z,61.20
2019-02-28T09:55:42.367Z,61.60
2019-02-28T09:58:09.822Z,61.40
2019-02-28T10:00:37.247Z,62.50
2019-02-28T10:03:06.705Z,62.70
2019-02-28T10:05:33.930Z,62.30
2019-02-28T10:08:02.773Z,61.30
2019-02-28T10:10:30.542Z,61.40
2019-02-28T10:12:58.090Z,61.40
2019-02-28T10:15:25.805Z,61.50
2019-02-28T10:17:53.252Z,62.60
2019-02-28T10:20:26.283Z,59.90
2019-02-28T10:22:52.231Z,60.70
2019-02-28T10:25:19.910Z,60.90
2019-02-28T10:27:47.482Z,60.30
2019-02-28T10:30:16.914Z,59.80
2019-02-28T10:32:44.309Z,60.60
2019-02-28T10:35:12.463Z,60.60
2019-02-28T10:37:39.864Z,59.70
2019-02-28T10:40:08.608Z,60.70
2019-02-28T10:42:37.081Z,59.00
2019-02-28T10:45:07.177Z,58.90
2019-02-28T10:47:34.631Z,59.40
2019-02-28T10:50:02.218Z,57.10
2019-02-28T10:52:30.629Z,58.60
2019-02-28T10:54:58.103Z,58.10
2019-02-28T10:57:25.522Z,58.30
2019-02-28T10:59:55.176Z,57.80
2019-02-28T11:02:22.209Z,58.10
2019-02-28T11:04:49.966Z,57.70
2019-02-28T11:07:17.482Z,57.50
2019-02-28T11:09:46.877Z,57.80
2019-02-28T11:12:19.622Z,57.70
2019-02-28T11:14:45.786Z,55.50
2019-02-28T11:17:13.905Z,57.50
2019-02-28T11:19:41.674Z,56.50
2019-02-28T11:22:09.266Z,56.50
2019-02-28T11:24:36.874Z,56.00
2019-02-28T11:27:06.334Z,56.20
2019-02-28T11:29:35.210Z,55.20
2019-02-28T11:32:03.042Z,55.60
2019-02-28T11:34:31.062Z,55.80
2019-02-28T11:36:58.474Z,53.40
2019-02-28T11:39:27.577Z,54.10
2019-02-28T11:41:55.292Z,54.60
2019-02-28T11:44:22.694Z,54.40
2019-02-28T11:46:50.098Z,53.70
2019-02-28T11:49:17.522Z,54.60
2019-02-28T11:51:44.930Z,53.70
2019-02-28T11:54:13.406Z,52.80
2019-02-28T11:56:40.870Z,52.90
2019-02-28T11:59:08.296Z,54.70
2019-02-28T12:01:35.728Z,53.10
2019-02-28T12:04:03.281Z,53.80
2019-02-28T12:06:30.696Z,51.90
2019-02-28T12:08:58.047Z,51.30
2019-02-28T12:11:25.762Z,52.20
2019-02-28T12:13:55.171Z,51.70
2019-02-28T12:16:22.396Z,50.50
2019-02-28T12:18:49.863Z,50.20
2019-02-28T12:21:17.313Z,49.10
2019-02-28T12:23:44.874Z,50.20
2019-02-28T12:26:14.354Z,50.80
2019-02-28T12:28:41.874Z,50.80
2019-02-28T12:31:09.538Z,50.10
2019-02-28T12:33:36.997Z,49.80
2019-02-28T12:36:04.482Z,49.00
2019-02-28T12:38:31.892Z,48.10
2019-02-28T12:40:59.347Z,48.20
2019-02-28T12:43:26.762Z,48.70
2019-02-28T12:45:56.805Z,47.80
2019-02-28T12:48:23.533Z,47.50
2019-02-28T12:50:50.927Z,46.50
2019-02-28T12:53:18.324Z,45.10
2019-02-28T12:55:45.921Z,44.40
2019-02-28T12:58:13.440Z,39.00
2019-02-28T13:00:40.989Z,32.50
2019-02-28T13:03:09.236Z,33.50
2019-02-28T13:05:36.735Z,29.50
2019-02-28T13:08:05.815Z,28.50
2019-02-28T13:10:33.969Z,26.20
2019-02-28T13:13:06.307Z,25.10
2019-02-28T13:15:30.968Z,24.40
2019-02-28T13:17:58.432Z,23.40
2019-02-28T13:20:32.172Z,22.20
2019-02-28T13:22:59.170Z,23.70
2019-02-28T13:25:25.453Z,23.50
2019-02-28T13:27:52.866Z,20.90
2019-02-28T13:30:21.728Z,21.10
2019-02-28T13:32:49.110Z,21.60
2019-02-28T13:35:18.853Z,22.00
2019-02-28T13:37:46.255Z,20.70
2019-02-28T13:40:13.853Z,23.20
2019-02-28T13:42:42.273Z,21.40
2019-02-28T13:45:16.186Z,20.00
2019-02-28T13:47:42.015Z,21.00
2019-02-28T13:50:13.064Z,21.50
2019-02-28T13:52:40.418Z,22.90
2019-02-28T13:55:08.930Z,25.20
2019-02-28T13:57:40.723Z,23.00
2019-02-28T14:00:12.761Z,24.10
2019-02-28T14:02:40.151Z,24.10
2019-02-28T14:05:07.593Z,24.40
2019-02-28T14:07:35.113Z,21.80
2019-02-28T14:10:02.834Z,22.00
2019-02-28T14:12:30.237Z,22.60
2019-02-28T14:14:57.686Z,21.50
2019-02-28T14:17:25.096Z,22.20
2019-02-28T14:19:53.472Z,21.60
2019-02-28T14:22:21.023Z,21.70
2019-02-28T14:24:48.662Z,22.30
2019-02-28T14:27:16.553Z,21.90
2019-02-28T14:29:48.255Z,22.20
2019-02-28T14:32:13.263Z,22.30
2019-02-28T14:34:40.698Z,22.80
2019-02-28T14:37:08.306Z,23.00
2019-02-28T14:39:39.839Z,23.40
2019-02-28T14:42:07.991Z,23.70
2019-02-28T14:44:35.571Z,23.50
2019-02-28T14:47:02.967Z,23.20
2019-02-28T14:49:30.395Z,23.10
2019-02-28T14:52:00.423Z,23.90
2019-02-28T14:54:27.047Z,23.60
2019-02-28T14:56:54.442Z,23.60
2019-02-28T14:59:22.002Z,23.30
2019-02-28T15:01:49.502Z,23.00
2019-02-28T15:04:18.631Z,23.40
2019-02-28T15:06:47.386Z,24.10
2019-02-28T15:09:16.487Z,24.60
2019-02-28T15:11:46.871Z,25.10
2019-02-28T15:14:13.327Z,25.40
2019-02-28T15:16:40.736Z,26.00
2019-02-28T15:19:08.231Z,26.50
2019-02-28T15:21:35.691Z,26.60
2019-02-28T15:24:08.352Z,26.50
2019-02-28T15:26:34.793Z,26.60
2019-02-28T15:29:02.922Z,27.30
2019-02-28T15:31:49.910Z,27.40
2019-02-28T15:34:17.595Z,27.70
2019-02-28T15:36:45.039Z,27.80
2019-02-28T15:39:12.412Z,27.80
2019-02-28T15:41:40.043Z,27.70
2019-02-28T15:44:07.456Z,28.00
2019-02-28T15:46:35.991Z,28.40
2019-02-28T15:49:06.472Z,28.40
2019-02-28T15:51:33.041Z,29.20
2019-02-28T15:54:00.594Z,29.40
2019-02-28T15:56:28.213Z,29.70
2019-02-28T15:58:55.623Z,30.20
2019-02-28T16:01:23.033Z,30.40
2019-02-28T16:03:51.373Z,30.30
2019-02-28T16:06:20.631Z,30.60
2019-02-28T16:08:48.106Z,31.10
2019-02-28T16:11:15.663Z,31.30
2019-02-28T16:13:43.091Z,31.80
2019-02-28T16:16:12.289Z,31.80
2019-02-28T16:18:40.676Z,32.30
2019-02-28T16:21:08.253Z,31.40
2019-02-28T16:23:35.787Z,31.60
2019-02-28T16:26:03.966Z,31.10
2019-02-28T16:28:31.359Z,31.30
2019-02-28T16:30:59.023Z,31.40
2019-02-28T16:33:26.459Z,31.20
2019-02-28T16:35:54.051Z,31.70
2019-02-28T16:38:21.456Z,31.50
2019-02-28T16:40:48.900Z,31.60
2019-02-28T16:43:17.482Z,32.00
2019-02-28T16:45:47.711Z,32.30
2019-02-28T16:48:15.383Z,32.20
2019-02-28T16:50:42.804Z,31.60
2019-02-28T16:53:14.789Z,30.90
2019-02-28T16:55:40.211Z,31.10
2019-02-28T16:58:07.522Z,30.60
2019-02-28T17:00:35.019Z,30.90
2019-02-28T17:03:03.945Z,31.30
2019-02-28T17:05:31.672Z,30.60
2019-02-28T17:07:58.983Z,30.40
2019-02-28T17:10:44.447Z,31.30
2019-02-28T17:13:35.572Z,32.20
2019-02-28T17:16:23.571Z,31.40
2019-02-28T17:18:53.558Z,32.30
2019-02-28T17:21:20.186Z,33.00
2019-02-28T17:23:47.802Z,33.50
2019-02-28T17:26:15.191Z,32.30
2019-02-28T17:28:56.891Z,32.20
2019-02-28T17:31:38.537Z,32.30
2019-02-28T17:34:06.251Z,32.10
2019-02-28T17:36:34.007Z,32.30
2019-02-28T17:39:01.415Z,32.50
2019-02-28T17:41:29.308Z,32.40
2019-02-28T17:44:37.481Z,32.00
2019-02-28T17:47:36.556Z,32.00
2019-02-28T17:50:47.263Z,32.10
2019-02-28T17:54:01.419Z,31.70
2019-02-28T17:57:12.822Z,32.20
2019-02-28T17:59:54.290Z,32.30
2019-02-28T18:03:06.446Z,32.30
2019-02-28T18:06:08.744Z,32.70
2019-02-28T18:09:14.290Z,33.10
2019-02-28T18:12:25.298Z,33.00
2019-02-28T18:15:16.137Z,33.20
2019-02-28T18:18:08.906Z,33.10
2019-02-28T18:21:12.190Z,33.50
2019-02-28T18:24:24.191Z,33.40
2019-02-28T18:27:11.594Z,33.70
2019-02-28T18:30:24.741Z,34.30
2019-02-28T18:32:52.307Z,33.90
2019-02-28T18:35:20.159Z,34.80
2019-02-28T18:37:47.622Z,34.00
2019-02-28T18:40:15.034Z,34.10
2019-02-28T18:42:42.524Z,34.30
2019-02-28T18:45:10.228Z,34.80
2019-02-28T18:47:39.721Z,34.60
2019-02-28T18:50:07.074Z,35.00
2019-02-28T18:52:34.522Z,35.30
2019-02-28T18:55:05.946Z,35.10
2019-02-28T18:57:31.132Z,35.10
2019-02-28T18:59:58.758Z,35.30
2019-02-28T19:02:27.262Z,35.70
2019-02-28T19:04:54.675Z,35.90
2019-02-28T19:07:22.306Z,36.60
2019-02-28T19:09:49.698Z,36.50
2019-02-28T19:12:17.115Z,36.10
2019-02-28T19:14:44.571Z,36.60
2019-02-28T19:17:11.979Z,36.60
2019-02-28T19:19:39.378Z,36.80
2019-02-28T19:22:06.970Z,37.00
2019-02-28T19:24:34.375Z,37.10
2019-02-28T19:27:01.778Z,37.20
2019-02-28T19:29:29.222Z,37.50
2019-02-28T19:31:56.626Z,37.40
2019-02-28T19:34:24.193Z,37.60
2019-02-28T19:36:52.015Z,37.70
2019-02-28T19:39:19.402Z,37.80
2019-02-28T19:41:46.917Z,38.10
2019-02-28T19:44:14.359Z,38.40
2019-02-28T19:46:41.777Z,39.60
2019-02-28T19:49:09.295Z,39.10
2019-02-28T19:51:36.937Z,39.30
2019-02-28T19:54:04.339Z,39.40
2019-02-28T19:56:31.757Z,39.60
2019-02-28T19:58:59.240Z,39.70
2019-02-28T20:01:26.643Z,39.60
2019-02-28T20:03:54.055Z,39.70
2019-02-28T20:06:21.709Z,40.10
2019-02-28T20:08:49.090Z,40.10
2019-02-28T20:11:16.492Z,40.20
2019-02-28T20:13:43.934Z,40.20
2019-02-28T20:16:11.335Z,40.40
2019-02-28T20:18:38.862Z,40.40
2019-02-28T20:21:06.914Z,41.00
2019-02-28T20:23:34.298Z,40.30
2019-02-28T20:26:01.683Z,40.30
2019-02-28T20:28:29.132Z,40.00
2019-02-28T20:30:56.539Z,39.90
2019-02-28T20:33:24.056Z,40.10
2019-02-28T20:35:51.858Z,40.10
2019-02-28T20:38:19.251Z,39.90
2019-02-28T20:40:46.631Z,39.80
2019-02-28T20:43:14.089Z,40.20
2019-02-28T20:45:41.495Z,40.40
2019-02-28T20:48:08.900Z,40.70
2019-02-28T20:50:38.860Z,40.90
2019-02-28T20:53:06.329Z,40.70
2019-02-28T20:55:33.744Z,41.00
2019-02-28T20:58:01.231Z,41.10
2019-02-28T21:00:28.598Z,41.40
2019-02-28T21:02:55.999Z,41.50
2019-02-28T21:05:23.450Z,41.60
2019-02-28T21:07:50.951Z,41.90
2019-02-28T21:10:18.346Z,42.10
2019-02-28T21:12:45.811Z,42.50
2019-02-28T21:15:32.799Z,42.90
2019-02-28T21:18:00.991Z,42.30
2019-02-28T21:20:28.403Z,42.60
2019-02-28T21:22:55.842Z,42.80
2019-02-28T21:25:23.410Z,42.90
2019-02-28T21:27:50.818Z,42.90
2019-02-28T21:30:19.478Z,43.50
2019-02-28T21:32:47.346Z,43.70
2019-02-28T21:35:15.866Z,44.20
2019-02-28T21:37:43.708Z,45.00
2019-02-28T21:40:12.074Z,44.80
2019-02-28T21:42:39.465Z,44.50
2019-02-28T21:45:08.042Z,43.30
2019-02-28T21:47:35.589Z,43.70
2019-02-28T21:50:03.882Z,43.90
2019-02-28T21:52:31.266Z,44.50
2019-02-28T21:54:58.695Z,44.90
2019-02-28T21:57:26.102Z,44.80
2019-02-28T21:59:53.496Z,44.70
2019-02-28T22:02:20.959Z,43.80
2019-02-28T22:04:48.347Z,44.00
2019-02-28T22:07:15.736Z,44.50
2019-02-28T22:09:43.178Z,44.90
2019-02-28T22:12:10.568Z,44.90
2019-02-28T22:14:37.990Z,45.00
2019-02-28T22:17:05.410Z,44.80
2019-02-28T22:19:33.040Z,45.10
2019-02-28T22:22:00.450Z,46.00
2019-02-28T22:24:27.936Z,46.20
2019-02-28T22:26:55.351Z,45.90
2019-02-28T22:29:22.750Z,46.20
2019-02-28T22:32:28.130Z,46.70
2019-02-28T22:35:19.284Z,46.90
2019-02-28T22:37:47.049Z,46.50
2019-02-28T22:40:14.463Z,47.40
2019-02-28T22:42:41.850Z,47.40
2019-02-28T22:45:09.647Z,47.70
2019-02-28T22:47:37.050Z,48.10
2019-02-28T22:50:04.674Z,48.50
2019-02-28T22:52:32.335Z,48.60
2019-02-28T22:54:59.731Z,48.90
2019-02-28T22:57:27.152Z,49.40
2019-02-28T22:59:54.604Z,49.50
2019-02-28T23:02:22.974Z,49.80
2019-02-28T23:04:50.382Z,50.10
2019-02-28T23:07:17.818Z,50.60
2019-02-28T23:09:45.220Z,50.70
2019-02-28T23:12:12.611Z,50.60
2019-02-28T23:14:40.220Z,50.80
2019-02-28T23:17:08.237Z,50.70
2019-02-28T23:19:35.578Z,50.90
2019-02-28T23:22:02.978Z,51.90
2019-02-28T23:24:30.352Z,51.20
2019-02-28T23:27:17.306Z,51.50
2019-02-28T23:29:49.338Z,50.70
2019-02-28T23:32:45.281Z,51.00
2019-02-28T23:35:19.270Z,51.20
2019-02-28T23:37:46.650Z,51.10
2019-02-28T23:40:14.063Z,51.70
2019-02-28T23:42:41.648Z,52.10
2019-02-28T23:45:09.042Z,52.20
2019-02-28T23:47:37.575Z,52.40
2019-02-28T23:50:05.778Z,52.30
2019-02-28T23:52:33.175Z,52.20
2019-02-28T23:55:00.562Z,52.00
2019-02-28T23:57:28.007Z,52.20
2019-02-28T23:59:55.394Z,52.50
